sensor_id;sensor_type;location;lat;lon;timestamp;P1;durP1;ratioP1;P2;durP2;ratioP2
59006;SDS011;44792;52.760;6.726;2023-07-24T00:01:52;7.50;;;5.85;;
59006;SDS011;44792;52.760;6.726;2023-07-24T00:04:18;6.90;;;5.95;;
59006;SDS011;44792;52.760;6.726;2023-07-24T00:06:43;6.85;;;5.60;;
59006;SDS011;44792;52.760;6.726;2023-07-24T01:17:24;7.47;;;6.05;;
59006;SDS011;44792;52.760;6.726;2023-07-24T01:19:55;9.80;;;6.50;;
59006;SDS011;44792;52.760;6.726;2023-07-24T01:27:48;8.35;;;6.55;;
59006;SDS011;44792;52.760;6.726;2023-07-24T01:30:16;9.40;;;6.70;;
59006;SDS011;44792;52.760;6.726;2023-07-24T01:32:43;8.02;;;6.45;;
59006;SDS011;44792;52.760;6.726;2023-07-24T01:35:09;8.85;;;6.30;;
59006;SDS011;44792;52.760;6.726;2023-07-24T01:37:35;11.70;;;6.63;;
59006;SDS011;44792;52.760;6.726;2023-07-24T01:40:04;11.27;;;6.50;;
59006;SDS011;44792;52.760;6.726;2023-07-24T01:42:31;8.48;;;5.97;;
59006;SDS011;44792;52.760;6.726;2023-07-24T01:44:58;10.05;;;6.55;;
59006;SDS011;44792;52.760;6.726;2023-07-24T01:47:24;9.02;;;6.18;;
59006;SDS011;44792;52.760;6.726;2023-07-24T01:49:50;7.93;;;6.30;;
59006;SDS011;44792;52.760;6.726;2023-07-24T01:52:17;6.60;;;5.90;;
59006;SDS011;44792;52.760;6.726;2023-07-24T01:54:43;10.40;;;6.57;;
59006;SDS011;44792;52.760;6.726;2023-07-24T01:57:08;7.95;;;5.63;;
59006;SDS011;44792;52.760;6.726;2023-07-24T01:59:34;7.40;;;5.43;;
59006;SDS011;44792;52.760;6.726;2023-07-24T02:02:00;8.60;;;5.82;;
59006;SDS011;44792;52.760;6.726;2023-07-24T02:04:25;9.27;;;5.63;;
59006;SDS011;44792;52.760;6.726;2023-07-24T02:06:51;10.10;;;6.15;;
59006;SDS011;44792;52.760;6.726;2023-07-24T02:09:20;7.25;;;5.32;;
59006;SDS011;44792;52.760;6.726;2023-07-24T02:11:46;8.18;;;5.47;;
59006;SDS011;44792;52.760;6.726;2023-07-24T02:14:12;9.18;;;5.85;;
59006;SDS011;44792;52.760;6.726;2023-07-24T02:16:39;7.15;;;6.07;;
59006;SDS011;44792;52.760;6.726;2023-07-24T02:19:05;8.15;;;5.55;;
59006;SDS011;44792;52.760;6.726;2023-07-24T02:21:31;9.35;;;5.88;;
59006;SDS011;44792;52.760;6.726;2023-07-24T02:23:57;6.72;;;5.57;;
59006;SDS011;44792;52.760;6.726;2023-07-24T02:26:22;9.23;;;5.60;;
59006;SDS011;44792;52.760;6.726;2023-07-24T02:28:48;8.45;;;6.13;;
59006;SDS011;44792;52.760;6.726;2023-07-24T02:31:14;8.73;;;6.15;;
59006;SDS011;44792;52.760;6.726;2023-07-24T02:33:39;8.57;;;6.40;;
59006;SDS011;44792;52.760;6.726;2023-07-24T02:36:05;8.32;;;6.10;;
59006;SDS011;44792;52.760;6.726;2023-07-24T02:38:31;7.60;;;5.72;;
59006;SDS011;44792;52.760;6.726;2023-07-24T02:40:56;10.65;;;6.85;;
59006;SDS011;44792;52.760;6.726;2023-07-24T02:43:22;7.60;;;5.75;;
59006;SDS011;44792;52.760;6.726;2023-07-24T02:45:48;6.82;;;5.75;;
59006;SDS011;44792;52.760;6.726;2023-07-24T02:48:14;6.97;;;5.80;;
59006;SDS011;44792;52.760;6.726;2023-07-24T02:50:39;7.15;;;5.47;;
59006;SDS011;44792;52.760;6.726;2023-07-24T02:53:05;7.63;;;6.28;;
59006;SDS011;44792;52.760;6.726;2023-07-24T02:55:31;7.05;;;5.80;;
59006;SDS011;44792;52.760;6.726;2023-07-24T02:57:56;9.15;;;5.95;;
59006;SDS011;44792;52.760;6.726;2023-07-24T03:00:22;7.72;;;5.72;;
59006;SDS011;44792;52.760;6.726;2023-07-24T03:02:48;7.75;;;6.15;;
59006;SDS011;44792;52.760;6.726;2023-07-24T03:05:14;8.02;;;5.57;;
59006;SDS011;44792;52.760;6.726;2023-07-24T03:07:39;7.28;;;5.88;;
59006;SDS011;44792;52.760;6.726;2023-07-24T03:10:05;9.23;;;6.18;;
59006;SDS011;44792;52.760;6.726;2023-07-24T03:12:32;7.95;;;5.97;;
59006;SDS011;44792;52.760;6.726;2023-07-24T03:14:58;7.32;;;6.03;;
59006;SDS011;44792;52.760;6.726;2023-07-24T03:17:24;8.02;;;5.65;;
59006;SDS011;44792;52.760;6.726;2023-07-24T03:19:49;9.25;;;5.75;;
59006;SDS011;44792;52.760;6.726;2023-07-24T03:22:15;7.53;;;5.13;;
59006;SDS011;44792;52.760;6.726;2023-07-24T03:24:41;6.97;;;5.35;;
59006;SDS011;44792;52.760;6.726;2023-07-24T03:27:07;6.63;;;5.68;;
59006;SDS011;44792;52.760;6.726;2023-07-24T03:29:32;8.52;;;5.70;;
59006;SDS011;44792;52.760;6.726;2023-07-24T03:31:58;8.57;;;6.38;;
59006;SDS011;44792;52.760;6.726;2023-07-24T03:34:24;8.38;;;7.13;;
59006;SDS011;44792;52.760;6.726;2023-07-24T03:36:50;7.75;;;6.38;;
59006;SDS011;44792;52.760;6.726;2023-07-24T03:39:15;8.68;;;6.43;;
59006;SDS011;44792;52.760;6.726;2023-07-24T03:41:41;11.10;;;6.95;;
59006;SDS011;44792;52.760;6.726;2023-07-24T03:44:08;10.05;;;7.20;;
59006;SDS011;44792;52.760;6.726;2023-07-24T03:46:34;8.48;;;6.75;;
59006;SDS011;44792;52.760;6.726;2023-07-24T03:48:59;13.50;;;7.38;;
59006;SDS011;44792;52.760;6.726;2023-07-24T03:51:25;8.45;;;6.38;;
59006;SDS011;44792;52.760;6.726;2023-07-24T03:53:51;9.25;;;7.38;;
59006;SDS011;44792;52.760;6.726;2023-07-24T03:56:17;9.65;;;6.45;;
59006;SDS011;44792;52.760;6.726;2023-07-24T03:58:43;9.25;;;6.55;;
59006;SDS011;44792;52.760;6.726;2023-07-24T04:01:08;10.13;;;7.53;;
59006;SDS011;44792;52.760;6.726;2023-07-24T04:03:34;9.95;;;7.28;;
59006;SDS011;44792;52.760;6.726;2023-07-24T04:06:01;9.18;;;7.05;;
59006;SDS011;44792;52.760;6.726;2023-07-24T04:08:26;10.63;;;7.30;;
59006;SDS011;44792;52.760;6.726;2023-07-24T04:10:52;8.80;;;7.13;;
59006;SDS011;44792;52.760;6.726;2023-07-24T04:13:18;9.52;;;7.10;;
59006;SDS011;44792;52.760;6.726;2023-07-24T04:15:44;10.50;;;7.60;;
59006;SDS011;44792;52.760;6.726;2023-07-24T04:18:10;11.23;;;7.85;;
59006;SDS011;44792;52.760;6.726;2023-07-24T04:20:36;11.45;;;8.43;;
59006;SDS011;44792;52.760;6.726;2023-07-24T04:23:02;11.63;;;8.38;;
59006;SDS011;44792;52.760;6.726;2023-07-24T04:25:28;11.52;;;8.45;;
59006;SDS011;44792;52.760;6.726;2023-07-24T04:27:54;12.10;;;8.02;;
59006;SDS011;44792;52.760;6.726;2023-07-24T04:30:19;14.57;;;7.95;;
59006;SDS011;44792;52.760;6.726;2023-07-24T04:32:45;12.13;;;8.73;;
59006;SDS011;44792;52.760;6.726;2023-07-24T04:35:11;11.00;;;8.18;;
59006;SDS011;44792;52.760;6.726;2023-07-24T04:37:37;11.32;;;8.60;;
59006;SDS011;44792;52.760;6.726;2023-07-24T04:40:03;10.93;;;9.30;;
59006;SDS011;44792;52.760;6.726;2023-07-24T04:42:30;9.77;;;8.35;;
59006;SDS011;44792;52.760;6.726;2023-07-24T04:44:56;11.55;;;8.75;;
59006;SDS011;44792;52.760;6.726;2023-07-24T04:47:22;12.57;;;8.80;;
59006;SDS011;44792;52.760;6.726;2023-07-24T04:49:47;9.82;;;8.13;;
59006;SDS011;44792;52.760;6.726;2023-07-24T04:52:13;11.35;;;8.50;;
59006;SDS011;44792;52.760;6.726;2023-07-24T04:54:39;14.13;;;8.63;;
59006;SDS011;44792;52.760;6.726;2023-07-24T04:57:04;12.80;;;8.35;;
59006;SDS011;44792;52.760;6.726;2023-07-24T04:59:30;15.15;;;9.30;;
59006;SDS011;44792;52.760;6.726;2023-07-24T05:01:56;11.98;;;8.85;;
59006;SDS011;44792;52.760;6.726;2023-07-24T05:04:22;11.15;;;8.38;;
59006;SDS011;44792;52.760;6.726;2023-07-24T05:06:47;12.60;;;8.70;;
59006;SDS011;44792;52.760;6.726;2023-07-24T05:09:13;14.40;;;9.00;;
59006;SDS011;44792;52.760;6.726;2023-07-24T05:11:39;12.77;;;9.38;;
59006;SDS011;44792;52.760;6.726;2023-07-24T05:14:07;12.00;;;9.23;;
59006;SDS011;44792;52.760;6.726;2023-07-24T05:16:32;12.70;;;9.45;;
59006;SDS011;44792;52.760;6.726;2023-07-24T05:18:58;14.23;;;8.68;;
59006;SDS011;44792;52.760;6.726;2023-07-24T05:21:24;11.90;;;9.65;;
59006;SDS011;44792;52.760;6.726;2023-07-24T05:23:49;12.15;;;8.65;;
59006;SDS011;44792;52.760;6.726;2023-07-24T05:26:15;16.60;;;9.57;;
59006;SDS011;44792;52.760;6.726;2023-07-24T05:28:41;11.90;;;8.90;;
59006;SDS011;44792;52.760;6.726;2023-07-24T05:31:06;15.20;;;9.50;;
59006;SDS011;44792;52.760;6.726;2023-07-24T05:33:33;12.88;;;9.60;;
59006;SDS011;44792;52.760;6.726;2023-07-24T05:35:59;12.38;;;8.98;;
59006;SDS011;44792;52.760;6.726;2023-07-24T05:38:29;12.55;;;9.05;;
59006;SDS011;44792;52.760;6.726;2023-07-24T05:41:04;12.27;;;9.73;;
59006;SDS011;44792;52.760;6.726;2023-07-24T05:43:30;12.30;;;8.88;;
59006;SDS011;44792;52.760;6.726;2023-07-24T05:45:56;14.05;;;10.25;;
59006;SDS011;44792;52.760;6.726;2023-07-24T05:48:23;13.48;;;9.00;;
59006;SDS011;44792;52.760;6.726;2023-07-24T05:50:49;11.55;;;9.05;;
59006;SDS011;44792;52.760;6.726;2023-07-24T05:53:15;12.05;;;8.77;;
59006;SDS011;44792;52.760;6.726;2023-07-24T05:55:41;12.18;;;8.57;;
59006;SDS011;44792;52.760;6.726;2023-07-24T05:58:10;15.15;;;9.23;;
59006;SDS011;44792;52.760;6.726;2023-07-24T06:00:36;11.27;;;8.60;;
59006;SDS011;44792;52.760;6.726;2023-07-24T06:03:02;11.80;;;9.43;;
59006;SDS011;44792;52.760;6.726;2023-07-24T06:05:28;11.13;;;8.65;;
59006;SDS011;44792;52.760;6.726;2023-07-24T06:07:54;17.40;;;9.45;;
59006;SDS011;44792;52.760;6.726;2023-07-24T06:10:20;10.95;;;8.77;;
59006;SDS011;44792;52.760;6.726;2023-07-24T06:12:46;13.40;;;9.18;;
59006;SDS011;44792;52.760;6.726;2023-07-24T06:15:12;12.27;;;9.38;;
59006;SDS011;44792;52.760;6.726;2023-07-24T06:17:38;12.65;;;9.25;;
59006;SDS011;44792;52.760;6.726;2023-07-24T06:20:04;14.18;;;9.25;;
59006;SDS011;44792;52.760;6.726;2023-07-24T06:22:31;14.95;;;8.90;;
59006;SDS011;44792;52.760;6.726;2023-07-24T06:24:56;12.07;;;9.13;;
59006;SDS011;44792;52.760;6.726;2023-07-24T06:27:22;11.98;;;8.75;;
59006;SDS011;44792;52.760;6.726;2023-07-24T06:29:48;11.00;;;8.85;;
59006;SDS011;44792;52.760;6.726;2023-07-24T06:32:13;11.10;;;9.10;;
59006;SDS011;44792;52.760;6.726;2023-07-24T06:34:39;12.38;;;9.82;;
59006;SDS011;44792;52.760;6.726;2023-07-24T06:37:05;12.93;;;9.35;;
59006;SDS011;44792;52.760;6.726;2023-07-24T06:39:30;11.40;;;9.07;;
59006;SDS011;44792;52.760;6.726;2023-07-24T06:41:58;13.50;;;9.82;;
59006;SDS011;44792;52.760;6.726;2023-07-24T06:44:24;10.75;;;8.90;;
59006;SDS011;44792;52.760;6.726;2023-07-24T06:46:49;11.50;;;8.55;;
59006;SDS011;44792;52.760;6.726;2023-07-24T06:49:15;10.82;;;8.35;;
59006;SDS011;44792;52.760;6.726;2023-07-24T06:51:41;11.80;;;9.20;;
59006;SDS011;44792;52.760;6.726;2023-07-24T06:54:06;14.80;;;10.25;;
59006;SDS011;44792;52.760;6.726;2023-07-24T06:56:32;10.63;;;8.93;;
59006;SDS011;44792;52.760;6.726;2023-07-24T06:58:58;13.85;;;10.38;;
59006;SDS011;44792;52.760;6.726;2023-07-24T07:01:23;11.73;;;9.00;;
59006;SDS011;44792;52.760;6.726;2023-07-24T07:03:49;12.30;;;8.30;;
59006;SDS011;44792;52.760;6.726;2023-07-24T07:06:15;13.05;;;9.73;;
59006;SDS011;44792;52.760;6.726;2023-07-24T07:08:41;13.45;;;9.82;;
59006;SDS011;44792;52.760;6.726;2023-07-24T07:11:07;11.35;;;8.45;;
59006;SDS011;44792;52.760;6.726;2023-07-24T07:13:33;10.07;;;8.27;;
59006;SDS011;44792;52.760;6.726;2023-07-24T07:15:59;12.23;;;9.20;;
59006;SDS011;44792;52.760;6.726;2023-07-24T07:18:24;13.20;;;9.02;;
59006;SDS011;44792;52.760;6.726;2023-07-24T07:20:51;11.02;;;8.25;;
59006;SDS011;44792;52.760;6.726;2023-07-24T07:23:18;11.05;;;7.50;;
59006;SDS011;44792;52.760;6.726;2023-07-24T07:25:45;13.18;;;8.05;;
59006;SDS011;44792;52.760;6.726;2023-07-24T07:28:11;12.00;;;7.70;;
59006;SDS011;44792;52.760;6.726;2023-07-24T07:30:41;9.38;;;7.72;;
59006;SDS011;44792;52.760;6.726;2023-07-24T07:33:07;13.20;;;8.32;;
59006;SDS011;44792;52.760;6.726;2023-07-24T07:35:33;12.48;;;7.88;;
59006;SDS011;44792;52.760;6.726;2023-07-24T07:38:00;12.70;;;8.07;;
59006;SDS011;44792;52.760;6.726;2023-07-24T07:40:26;14.90;;;8.05;;
59006;SDS011;44792;52.760;6.726;2023-07-24T07:42:53;10.90;;;7.45;;
59006;SDS011;44792;52.760;6.726;2023-07-24T07:45:19;15.70;;;8.20;;
59006;SDS011;44792;52.760;6.726;2023-07-24T07:47:45;15.95;;;8.00;;
59006;SDS011;44792;52.760;6.726;2023-07-24T07:50:10;11.48;;;8.00;;
59006;SDS011;44792;52.760;6.726;2023-07-24T07:52:36;11.63;;;8.05;;
59006;SDS011;44792;52.760;6.726;2023-07-24T07:55:02;13.25;;;8.85;;
59006;SDS011;44792;52.760;6.726;2023-07-24T07:57:28;12.40;;;8.07;;
59006;SDS011;44792;52.760;6.726;2023-07-24T07:59:54;14.10;;;8.65;;
59006;SDS011;44792;52.760;6.726;2023-07-24T08:02:19;11.75;;;8.25;;
59006;SDS011;44792;52.760;6.726;2023-07-24T08:04:45;10.75;;;7.45;;
59006;SDS011;44792;52.760;6.726;2023-07-24T08:07:11;11.02;;;7.43;;
59006;SDS011;44792;52.760;6.726;2023-07-24T08:09:36;12.95;;;8.38;;
59006;SDS011;44792;52.760;6.726;2023-07-24T08:12:03;15.25;;;7.78;;
59006;SDS011;44792;52.760;6.726;2023-07-24T08:14:29;11.75;;;7.88;;
59006;SDS011;44792;52.760;6.726;2023-07-24T08:16:55;11.32;;;7.65;;
59006;SDS011;44792;52.760;6.726;2023-07-24T08:19:21;12.15;;;8.00;;
59006;SDS011;44792;52.760;6.726;2023-07-24T08:21:47;12.50;;;7.20;;
59006;SDS011;44792;52.760;6.726;2023-07-24T08:24:13;10.88;;;7.38;;
59006;SDS011;44792;52.760;6.726;2023-07-24T08:26:38;9.70;;;7.00;;
59006;SDS011;44792;52.760;6.726;2023-07-24T08:29:05;13.73;;;7.43;;
59006;SDS011;44792;52.760;6.726;2023-07-24T08:31:30;10.63;;;7.25;;
59006;SDS011;44792;52.760;6.726;2023-07-24T08:33:56;13.13;;;7.40;;
59006;SDS011;44792;52.760;6.726;2023-07-24T08:36:22;10.90;;;7.28;;
59006;SDS011;44792;52.760;6.726;2023-07-24T08:38:48;12.65;;;7.03;;
59006;SDS011;44792;52.760;6.726;2023-07-24T08:41:14;12.13;;;6.97;;
59006;SDS011;44792;52.760;6.726;2023-07-24T08:43:41;15.02;;;7.35;;
59006;SDS011;44792;52.760;6.726;2023-07-24T08:46:07;11.52;;;7.40;;
59006;SDS011;44792;52.760;6.726;2023-07-24T08:48:35;13.25;;;7.43;;
59006;SDS011;44792;52.760;6.726;2023-07-24T08:51:02;11.73;;;6.97;;
59006;SDS011;44792;52.760;6.726;2023-07-24T08:53:29;15.73;;;6.70;;
59006;SDS011;44792;52.760;6.726;2023-07-24T08:55:56;9.48;;;6.72;;
59006;SDS011;44792;52.760;6.726;2023-07-24T08:58:22;12.75;;;6.93;;
59006;SDS011;44792;52.760;6.726;2023-07-24T09:00:48;9.45;;;6.93;;
59006;SDS011;44792;52.760;6.726;2023-07-24T09:03:13;11.02;;;6.47;;
59006;SDS011;44792;52.760;6.726;2023-07-24T09:05:39;11.13;;;6.15;;
59006;SDS011;44792;52.760;6.726;2023-07-24T09:08:05;11.43;;;5.63;;
59006;SDS011;44792;52.760;6.726;2023-07-24T09:10:31;10.32;;;6.00;;
59006;SDS011;44792;52.760;6.726;2023-07-24T09:12:56;9.13;;;6.57;;
59006;SDS011;44792;52.760;6.726;2023-07-24T09:15:22;10.82;;;6.53;;
59006;SDS011;44792;52.760;6.726;2023-07-24T09:17:51;9.85;;;6.55;;
59006;SDS011;44792;52.760;6.726;2023-07-24T09:20:18;9.60;;;6.68;;
59006;SDS011;44792;52.760;6.726;2023-07-24T09:22:51;8.40;;;5.90;;
59006;SDS011;44792;52.760;6.726;2023-07-24T09:25:29;7.85;;;5.65;;
59006;SDS011;44792;52.760;6.726;2023-07-24T09:27:58;8.35;;;5.60;;
59006;SDS011;44792;52.760;6.726;2023-07-24T09:30:24;6.93;;;5.28;;
59006;SDS011;44792;52.760;6.726;2023-07-24T09:32:53;10.38;;;5.78;;
59006;SDS011;44792;52.760;6.726;2023-07-24T09:35:20;8.52;;;5.40;;
59006;SDS011;44792;52.760;6.726;2023-07-24T09:37:51;11.17;;;5.83;;
59006;SDS011;44792;52.760;6.726;2023-07-24T09:40:26;11.40;;;5.03;;
59006;SDS011;44792;52.760;6.726;2023-07-24T09:42:51;8.60;;;5.35;;
59006;SDS011;44792;52.760;6.726;2023-07-24T09:45:17;10.77;;;5.85;;
59006;SDS011;44792;52.760;6.726;2023-07-24T09:47:43;7.85;;;5.05;;
59006;SDS011;44792;52.760;6.726;2023-07-24T09:50:09;13.60;;;5.90;;
59006;SDS011;44792;52.760;6.726;2023-07-24T09:52:35;8.20;;;5.45;;
59006;SDS011;44792;52.760;6.726;2023-07-24T09:55:17;8.55;;;5.40;;
59006;SDS011;44792;52.760;6.726;2023-07-24T09:57:47;11.48;;;5.32;;
59006;SDS011;44792;52.760;6.726;2023-07-24T10:00:16;8.50;;;5.22;;
59006;SDS011;44792;52.760;6.726;2023-07-24T10:02:42;7.65;;;4.97;;
59006;SDS011;44792;52.760;6.726;2023-07-24T10:05:09;10.10;;;5.28;;
59006;SDS011;44792;52.760;6.726;2023-07-24T10:07:36;8.57;;;5.00;;
59006;SDS011;44792;52.760;6.726;2023-07-24T10:10:03;9.85;;;5.63;;
59006;SDS011;44792;52.760;6.726;2023-07-24T10:12:30;8.95;;;4.95;;
59006;SDS011;44792;52.760;6.726;2023-07-24T10:14:57;13.38;;;6.53;;
59006;SDS011;44792;52.760;6.726;2023-07-24T10:17:33;11.07;;;5.72;;
59006;SDS011;44792;52.760;6.726;2023-07-24T10:20:04;7.78;;;5.35;;
59006;SDS011;44792;52.760;6.726;2023-07-24T10:22:30;9.63;;;5.40;;
59006;SDS011;44792;52.760;6.726;2023-07-24T10:24:56;12.43;;;5.97;;
59006;SDS011;44792;52.760;6.726;2023-07-24T10:27:25;8.82;;;5.97;;
59006;SDS011;44792;52.760;6.726;2023-07-24T10:30:02;11.88;;;6.18;;
59006;SDS011;44792;52.760;6.726;2023-07-24T10:32:30;10.48;;;6.45;;
59006;SDS011;44792;52.760;6.726;2023-07-24T10:34:59;10.70;;;5.95;;
59006;SDS011;44792;52.760;6.726;2023-07-24T10:37:35;8.73;;;5.40;;
59006;SDS011;44792;52.760;6.726;2023-07-24T10:40:02;13.38;;;5.38;;
59006;SDS011;44792;52.760;6.726;2023-07-24T10:42:29;13.35;;;5.85;;
59006;SDS011;44792;52.760;6.726;2023-07-24T10:45:16;10.18;;;5.45;;
59006;SDS011;44792;52.760;6.726;2023-07-24T10:47:42;8.48;;;5.30;;
59006;SDS011;44792;52.760;6.726;2023-07-24T10:50:08;13.80;;;5.90;;
59006;SDS011;44792;52.760;6.726;2023-07-24T10:52:34;12.23;;;5.78;;
59006;SDS011;44792;52.760;6.726;2023-07-24T10:55:02;8.23;;;5.20;;
59006;SDS011;44792;52.760;6.726;2023-07-24T10:57:29;7.82;;;5.00;;
59006;SDS011;44792;52.760;6.726;2023-07-24T10:59:55;6.70;;;4.80;;
59006;SDS011;44792;52.760;6.726;2023-07-24T11:02:21;8.23;;;4.30;;
59006;SDS011;44792;52.760;6.726;2023-07-24T11:04:47;8.68;;;4.68;;
59006;SDS011;44792;52.760;6.726;2023-07-24T11:07:13;7.63;;;5.30;;
59006;SDS011;44792;52.760;6.726;2023-07-24T11:09:39;9.23;;;4.88;;
59006;SDS011;44792;52.760;6.726;2023-07-24T11:12:15;8.00;;;5.05;;
59006;SDS011;44792;52.760;6.726;2023-07-24T11:14:48;8.48;;;4.43;;
59006;SDS011;44792;52.760;6.726;2023-07-24T11:17:14;9.68;;;4.45;;
59006;SDS011;44792;52.760;6.726;2023-07-24T11:19:40;12.90;;;4.43;;
59006;SDS011;44792;52.760;6.726;2023-07-24T11:22:06;7.22;;;4.90;;
59006;SDS011;44792;52.760;6.726;2023-07-24T11:24:32;8.05;;;4.43;;
59006;SDS011;44792;52.760;6.726;2023-07-24T11:26:58;7.20;;;4.32;;
59006;SDS011;44792;52.760;6.726;2023-07-24T11:29:23;5.57;;;4.07;;
59006;SDS011;44792;52.760;6.726;2023-07-24T11:31:55;6.88;;;4.38;;
59006;SDS011;44792;52.760;6.726;2023-07-24T11:34:24;10.43;;;4.10;;
59006;SDS011;44792;52.760;6.726;2023-07-24T11:36:50;8.32;;;4.25;;
59006;SDS011;44792;52.760;6.726;2023-07-24T11:39:22;9.95;;;4.38;;
59006;SDS011;44792;52.760;6.726;2023-07-24T11:41:48;6.25;;;3.95;;
59006;SDS011;44792;52.760;6.726;2023-07-24T11:44:14;11.15;;;4.03;;
59006;SDS011;44792;52.760;6.726;2023-07-24T11:46:42;12.15;;;4.55;;
59006;SDS011;44792;52.760;6.726;2023-07-24T11:49:08;7.40;;;4.22;;
59006;SDS011;44792;52.760;6.726;2023-07-24T11:51:36;10.23;;;4.53;;
59006;SDS011;44792;52.760;6.726;2023-07-24T11:54:05;9.15;;;4.65;;
59006;SDS011;44792;52.760;6.726;2023-07-24T11:56:32;8.63;;;4.32;;
59006;SDS011;44792;52.760;6.726;2023-07-24T11:59:08;7.35;;;4.07;;
59006;SDS011;44792;52.760;6.726;2023-07-24T12:01:37;8.93;;;4.93;;
59006;SDS011;44792;52.760;6.726;2023-07-24T12:04:03;9.10;;;5.20;;
59006;SDS011;44792;52.760;6.726;2023-07-24T12:06:32;8.00;;;4.65;;
59006;SDS011;44792;52.760;6.726;2023-07-24T12:09:02;6.28;;;4.35;;
59006;SDS011;44792;52.760;6.726;2023-07-24T12:11:30;8.32;;;4.28;;
59006;SDS011;44792;52.760;6.726;2023-07-24T12:13:56;8.27;;;3.70;;
59006;SDS011;44792;52.760;6.726;2023-07-24T12:16:22;9.63;;;4.20;;
59006;SDS011;44792;52.760;6.726;2023-07-24T12:18:48;7.72;;;4.15;;
59006;SDS011;44792;52.760;6.726;2023-07-24T12:21:14;8.52;;;3.90;;
59006;SDS011;44792;52.760;6.726;2023-07-24T12:23:39;10.30;;;4.50;;
59006;SDS011;44792;52.760;6.726;2023-07-24T12:26:05;8.77;;;4.25;;
59006;SDS011;44792;52.760;6.726;2023-07-24T12:28:31;10.38;;;4.20;;
59006;SDS011;44792;52.760;6.726;2023-07-24T12:30:56;14.27;;;4.85;;
59006;SDS011;44792;52.760;6.726;2023-07-24T12:33:22;9.98;;;4.50;;
59006;SDS011;44792;52.760;6.726;2023-07-24T12:35:51;7.30;;;4.20;;
59006;SDS011;44792;52.760;6.726;2023-07-24T12:38:20;9.55;;;4.80;;
59006;SDS011;44792;52.760;6.726;2023-07-24T12:40:46;9.85;;;4.65;;
59006;SDS011;44792;52.760;6.726;2023-07-24T12:43:12;9.10;;;4.70;;
59006;SDS011;44792;52.760;6.726;2023-07-24T12:45:39;9.18;;;5.10;;
59006;SDS011;44792;52.760;6.726;2023-07-24T12:48:05;9.63;;;4.28;;
59006;SDS011;44792;52.760;6.726;2023-07-24T12:50:30;6.70;;;4.07;;
59006;SDS011;44792;52.760;6.726;2023-07-24T12:52:56;9.15;;;4.50;;
59006;SDS011;44792;52.760;6.726;2023-07-24T12:55:22;8.25;;;3.95;;
59006;SDS011;44792;52.760;6.726;2023-07-24T12:57:48;5.88;;;4.00;;
59006;SDS011;44792;52.760;6.726;2023-07-24T13:00:13;5.70;;;3.95;;
59006;SDS011;44792;52.760;6.726;2023-07-24T13:02:39;7.97;;;4.20;;
59006;SDS011;44792;52.760;6.726;2023-07-24T13:05:05;7.13;;;3.97;;
59006;SDS011;44792;52.760;6.726;2023-07-24T13:07:31;10.07;;;4.32;;
59006;SDS011;44792;52.760;6.726;2023-07-24T13:09:57;6.93;;;4.25;;
59006;SDS011;44792;52.760;6.726;2023-07-24T13:12:22;9.50;;;4.28;;
59006;SDS011;44792;52.760;6.726;2023-07-24T13:14:48;7.78;;;4.20;;
59006;SDS011;44792;52.760;6.726;2023-07-24T13:17:14;6.40;;;3.85;;
59006;SDS011;44792;52.760;6.726;2023-07-24T13:19:39;11.18;;;4.13;;
59006;SDS011;44792;52.760;6.726;2023-07-24T13:22:05;7.82;;;4.70;;
59006;SDS011;44792;52.760;6.726;2023-07-24T13:24:31;6.72;;;4.03;;
59006;SDS011;44792;52.760;6.726;2023-07-24T13:26:57;11.05;;;4.88;;
59006;SDS011;44792;52.760;6.726;2023-07-24T13:29:23;7.78;;;5.03;;
59006;SDS011;44792;52.760;6.726;2023-07-24T13:31:49;8.45;;;5.18;;
59006;SDS011;44792;52.760;6.726;2023-07-24T13:34:17;7.63;;;4.63;;
59006;SDS011;44792;52.760;6.726;2023-07-24T13:36:45;8.38;;;4.65;;
59006;SDS011;44792;52.760;6.726;2023-07-24T13:39:12;9.35;;;5.28;;
59006;SDS011;44792;52.760;6.726;2023-07-24T13:41:37;9.95;;;5.22;;
59006;SDS011;44792;52.760;6.726;2023-07-24T13:44:04;8.38;;;3.63;;
59006;SDS011;44792;52.760;6.726;2023-07-24T13:46:29;13.95;;;3.50;;
59006;SDS011;44792;52.760;6.726;2023-07-24T13:48:55;6.13;;;3.30;;
59006;SDS011;44792;52.760;6.726;2023-07-24T13:51:21;11.57;;;4.35;;
59006;SDS011;44792;52.760;6.726;2023-07-24T13:53:46;9.40;;;4.68;;
59006;SDS011;44792;52.760;6.726;2023-07-24T13:56:14;7.50;;;4.30;;
59006;SDS011;44792;52.760;6.726;2023-07-24T13:58:40;12.00;;;5.18;;
59006;SDS011;44792;52.760;6.726;2023-07-24T14:01:05;8.52;;;4.75;;
59006;SDS011;44792;52.760;6.726;2023-07-24T14:03:32;12.55;;;5.38;;
59006;SDS011;44792;52.760;6.726;2023-07-24T14:05:58;8.02;;;5.28;;
59006;SDS011;44792;52.760;6.726;2023-07-24T14:08:24;9.55;;;5.55;;
59006;SDS011;44792;52.760;6.726;2023-07-24T14:10:50;9.10;;;5.63;;
59006;SDS011;44792;52.760;6.726;2023-07-24T14:13:16;8.95;;;5.13;;
59006;SDS011;44792;52.760;6.726;2023-07-24T14:15:42;7.32;;;5.13;;
59006;SDS011;44792;52.760;6.726;2023-07-24T14:18:08;8.38;;;6.00;;
59006;SDS011;44792;52.760;6.726;2023-07-24T14:20:33;10.48;;;5.85;;
59006;SDS011;44792;52.760;6.726;2023-07-24T14:22:59;11.90;;;6.28;;
59006;SDS011;44792;52.760;6.726;2023-07-24T14:25:25;11.88;;;6.53;;
59006;SDS011;44792;52.760;6.726;2023-07-24T14:27:51;12.90;;;6.93;;
59006;SDS011;44792;52.760;6.726;2023-07-24T14:30:16;10.80;;;6.90;;
59006;SDS011;44792;52.760;6.726;2023-07-24T14:32:42;12.70;;;6.53;;
59006;SDS011;44792;52.760;6.726;2023-07-24T14:35:08;11.52;;;6.30;;
59006;SDS011;44792;52.760;6.726;2023-07-24T14:37:33;12.90;;;6.28;;
59006;SDS011;44792;52.760;6.726;2023-07-24T14:39:59;9.82;;;5.55;;
59006;SDS011;44792;52.760;6.726;2023-07-24T14:42:25;7.70;;;6.15;;
59006;SDS011;44792;52.760;6.726;2023-07-24T14:44:50;10.55;;;5.97;;
59006;SDS011;44792;52.760;6.726;2023-07-24T14:47:16;12.50;;;5.65;;
59006;SDS011;44792;52.760;6.726;2023-07-24T14:49:42;8.80;;;6.63;;
59006;SDS011;44792;52.760;6.726;2023-07-24T14:52:08;7.70;;;5.63;;
59006;SDS011;44792;52.760;6.726;2023-07-24T14:54:34;12.70;;;6.72;;
59006;SDS011;44792;52.760;6.726;2023-07-24T14:56:59;10.48;;;5.47;;
59006;SDS011;44792;52.760;6.726;2023-07-24T14:59:27;9.00;;;5.90;;
59006;SDS011;44792;52.760;6.726;2023-07-24T15:01:53;7.65;;;5.40;;
59006;SDS011;44792;52.760;6.726;2023-07-24T15:04:19;6.40;;;4.90;;
59006;SDS011;44792;52.760;6.726;2023-07-24T15:06:44;7.32;;;4.78;;
59006;SDS011;44792;52.760;6.726;2023-07-24T15:09:10;5.43;;;3.95;;
59006;SDS011;44792;52.760;6.726;2023-07-24T15:11:36;3.90;;;3.20;;
59006;SDS011;44792;52.760;6.726;2023-07-24T15:14:02;3.33;;;2.65;;
59006;SDS011;44792;52.760;6.726;2023-07-24T15:16:27;5.65;;;2.38;;
59006;SDS011;44792;52.760;6.726;2023-07-24T15:18:53;5.53;;;2.00;;
59006;SDS011;44792;52.760;6.726;2023-07-24T15:21:19;5.45;;;2.30;;
59006;SDS011;44792;52.760;6.726;2023-07-24T15:23:44;6.13;;;2.10;;
59006;SDS011;44792;52.760;6.726;2023-07-24T15:26:16;4.32;;;2.03;;
59006;SDS011;44792;52.760;6.726;2023-07-24T15:28:42;6.90;;;2.30;;
59006;SDS011;44792;52.760;6.726;2023-07-24T15:31:08;7.47;;;2.58;;
59006;SDS011;44792;52.760;6.726;2023-07-24T15:33:34;6.53;;;1.90;;
59006;SDS011;44792;52.760;6.726;2023-07-24T15:36:00;5.43;;;2.08;;
59006;SDS011;44792;52.760;6.726;2023-07-24T15:38:26;5.88;;;1.92;;
59006;SDS011;44792;52.760;6.726;2023-07-24T15:40:51;3.80;;;1.85;;
59006;SDS011;44792;52.760;6.726;2023-07-24T15:43:17;5.22;;;1.80;;
59006;SDS011;44792;52.760;6.726;2023-07-24T15:45:43;5.03;;;2.15;;
59006;SDS011;44792;52.760;6.726;2023-07-24T15:48:08;6.05;;;1.90;;
59006;SDS011;44792;52.760;6.726;2023-07-24T15:50:34;6.05;;;1.38;;